Time;durP1;ratioP1;P1;durP2;ratioP2;P2;SDS_P1;SDS_P2;PMS_P1;PMS_P2;Temp;Humidity;BMP_temperature;BMP_pressure;BME280_temperature;BME280_humidity;BME280_pressure;Samples;Min_cycle;Max_cycle;Signal;HPM_P1;HPM_P2
2023/06/25 00:00:32;;;;;;;10.80;6.53;;;;;;;;;;5153342;27;20168;-75
2023/06/25 00:02:58;;;;;;;8.38;5.18;;;;;;;;;;5138339;27;20386;-75
2023/06/25 00:05:24;;;;;;;10.50;5.90;;;;;;;;;;5134106;27;20099;-75
2023/06/25 00:07:51;;;;;;;11.68;6.80;;;;;;;;;;5153548;27;20494;-75
2023/06/25 00:10:18;;;;;;;10.60;6.72;;;;;;;;;;5136117;27;20060;-74
2023/06/25 00:12:44;;;;;;;11.50;7.95;;;;;;;;;;5136100;27;20042;-75
2023/06/25 00:15:11;;;;;;;11.95;6.95;;;;;;;;;;5151178;27;20110;-75
2023/06/25 00:17:38;;;;;;;12.23;7.60;;;;;;;;;;5123836;27;20042;-74
2023/06/25 00:20:05;;;;;;;8.55;6.32;;;;;;;;;;5134169;27;20498;-75
2023/06/25 00:22:31;;;;;;;10.20;7.80;;;;;;;;;;5123105;27;20099;-75
2023/06/25 00:24:57;;;;;;;14.50;9.32;;;;;;;;;;5154661;27;20065;-75
2023/06/25 00:27:23;;;;;;;9.88;6.18;;;;;;;;;;5154088;27;20054;-75
2023/06/25 00:29:50;;;;;;;7.95;5.32;;;;;;;;;;5146804;27;20493;-75
2023/06/25 00:32:16;;;;;;;9.05;5.40;;;;;;;;;;5154215;27;20031;-75
2023/06/25 00:34:42;;;;;;;9.90;6.38;;;;;;;;;;5153424;27;20574;-75
2023/06/25 00:37:18;;;;;;;9.85;6.57;;;;;;;;;;5152075;27;20038;-75
2023/06/25 00:39:45;;;;;;;9.40;6.72;;;;;;;;;;5142383;27;20061;-75
2023/06/25 00:42:11;;;;;;;8.80;6.57;;;;;;;;;;5149739;27;20042;-75
2023/06/25 00:44:41;;;;;;;9.57;6.43;;;;;;;;;;5127105;27;20498;-75
2023/06/25 00:47:12;;;;;;;7.60;5.10;;;;;;;;;;5124316;27;20046;-75
2023/06/25 00:49:39;;;;;;;7.35;5.47;;;;;;;;;;5125669;27;20083;-74
2023/06/25 00:52:08;;;;;;;7.03;4.75;;;;;;;;;;5153909;27;20049;-74
2023/06/25 00:54:44;;;;;;;8.23;4.60;;;;;;;;;;5132843;27;20043;-75
2023/06/25 00:57:11;;;;;;;10.10;5.13;;;;;;;;;;5135136;27;20053;-75
2023/06/25 00:59:43;;;;;;;12.05;5.78;;;;;;;;;;5155820;27;20065;-75
2023/06/25 01:02:12;;;;;;;12.38;7.43;;;;;;;;;;5128844;27;20067;-74
2023/06/25 01:04:42;;;;;;;13.13;7.60;;;;;;;;;;5118296;27;20406;-75
2023/06/25 01:07:16;;;;;;;13.38;10.13;;;;;;;;;;5152989;27;20457;-75
2023/06/25 01:09:44;;;;;;;11.85;7.93;;;;;;;;;;5153813;27;20150;-74
2023/06/25 01:12:10;;;;;;;17.10;9.13;;;;;;;;;;5150704;27;20490;-75
2023/06/25 01:14:36;;;;;;;11.57;8.23;;;;;;;;;;5135119;27;20096;-74
2023/06/25 01:17:05;;;;;;;8.90;5.72;;;;;;;;;;5133996;27;20107;-75
2023/06/25 01:19:31;;;;;;;11.48;5.78;;;;;;;;;;5135623;27;20107;-74
2023/06/25 01:22:01;;;;;;;11.57;6.65;;;;;;;;;;5134835;27;20064;-75
2023/06/25 01:24:28;;;;;;;12.23;7.53;;;;;;;;;;5134390;27;20054;-75
2023/06/25 01:26:59;;;;;;;12.52;7.30;;;;;;;;;;5133147;27;20039;-74
2023/06/25 01:29:26;;;;;;;10.35;7.32;;;;;;;;;;5117006;28;20055;-74
2023/06/25 01:31:53;;;;;;;11.93;7.20;;;;;;;;;;5124043;27;20047;-75
2023/06/25 01:34:22;;;;;;;14.48;8.70;;;;;;;;;;5130809;27;20047;-75
2023/06/25 01:36:50;;;;;;;11.13;7.55;;;;;;;;;;5126518;28;20092;-75
2023/06/25 01:39:16;;;;;;;10.48;7.00;;;;;;;;;;5121813;28;20050;-75
2023/06/25 01:41:43;;;;;;;11.15;7.20;;;;;;;;;;5124216;28;20078;-75
2023/06/25 01:44:11;;;;;;;10.73;6.32;;;;;;;;;;5109415;28;20507;-75
2023/06/25 01:46:37;;;;;;;8.50;6.38;;;;;;;;;;5129948;28;20379;-75
2023/06/25 01:49:03;;;;;;;12.32;8.20;;;;;;;;;;5127026;28;20173;-74
2023/06/25 01:51:31;;;;;;;8.90;6.53;;;;;;;;;;5124279;28;20046;-74
2023/06/25 01:53:58;;;;;;;9.63;6.68;;;;;;;;;;5130103;28;20051;-75
2023/06/25 01:56:24;;;;;;;11.88;8.25;;;;;;;;;;5116701;28;20048;-75
2023/06/25 01:58:52;;;;;;;13.27;9.00;;;;;;;;;;5131036;28;20167;-75
2023/06/25 02:01:22;;;;;;;16.58;10.65;;;;;;;;;;5111277;28;20062;-75
2023/06/25 02:03:49;;;;;;;13.40;9.90;;;;;;;;;;5122777;28;20425;-75
2023/06/25 02:06:15;;;;;;;12.43;8.25;;;;;;;;;;5128371;28;20036;-75
2023/06/25 02:08:42;;;;;;;15.20;10.02;;;;;;;;;;5126748;28;20394;-75
2023/06/25 02:11:08;;;;;;;14.75;11.93;;;;;;;;;;5129271;28;20512;-75
2023/06/25 02:13:35;;;;;;;14.77;11.48;;;;;;;;;;5109865;28;20563;-74
2023/06/25 02:16:02;;;;;;;15.38;10.57;;;;;;;;;;5119604;28;20058;-75
2023/06/25 02:18:28;;;;;;;14.80;11.32;;;;;;;;;;5117001;28;20511;-74
2023/06/25 02:20:55;;;;;;;19.75;11.52;;;;;;;;;;5127631;28;20142;-75
2023/06/25 02:23:21;;;;;;;20.13;12.07;;;;;;;;;;5129192;28;20035;-74
2023/06/25 02:25:49;;;;;;;21.50;12.48;;;;;;;;;;5132055;27;20051;-74
2023/06/25 02:28:17;;;;;;;14.82;11.48;;;;;;;;;;5145463;27;20111;-74
2023/06/25 02:30:43;;;;;;;13.52;10.30;;;;;;;;;;5140833;27;20043;-74
2023/06/25 02:33:10;;;;;;;16.73;11.23;;;;;;;;;;5129434;27;20053;-75
2023/06/25 02:35:36;;;;;;;21.00;12.05;;;;;;;;;;5132925;27;20385;-75
2023/06/25 02:38:02;;;;;;;16.75;10.85;;;;;;;;;;5121338;27;20128;-75
2023/06/25 02:40:28;;;;;;;15.35;11.52;;;;;;;;;;5134116;27;20094;-75
2023/06/25 02:42:55;;;;;;;15.85;11.15;;;;;;;;;;5134698;27;20098;-75
2023/06/25 02:45:21;;;;;;;15.27;11.68;;;;;;;;;;5155273;27;20538;-75
2023/06/25 02:47:48;;;;;;;18.50;12.23;;;;;;;;;;5138091;27;20050;-75
2023/06/25 02:50:14;;;;;;;16.70;12.27;;;;;;;;;;5120111;27;20054;-75
2023/06/25 02:52:40;;;;;;;18.17;11.57;;;;;;;;;;5124349;27;20050;-75
2023/06/25 02:55:07;;;;;;;18.85;13.40;;;;;;;;;;5138006;27;20462;-75
2023/06/25 02:57:33;;;;;;;17.13;11.93;;;;;;;;;;5155294;27;20126;-75
2023/06/25 03:00:00;;;;;;;18.67;11.75;;;;;;;;;;5144336;27;20070;-75
2023/06/25 03:02:26;;;;;;;15.75;12.57;;;;;;;;;;5128910;27;20042;-75
2023/06/25 03:04:53;;;;;;;22.70;13.07;;;;;;;;;;5141048;27;20042;-74
2023/06/25 03:07:19;;;;;;;18.45;12.15;;;;;;;;;;5142795;27;20088;-75
2023/06/25 03:09:45;;;;;;;16.30;12.23;;;;;;;;;;5136663;27;20447;-74
2023/06/25 03:12:11;;;;;;;20.30;12.73;;;;;;;;;;5155438;27;20414;-75
2023/06/25 03:14:38;;;;;;;15.98;12.48;;;;;;;;;;5136405;27;20050;-75
2023/06/25 03:17:04;;;;;;;22.60;13.05;;;;;;;;;;5153986;27;20438;-75
2023/06/25 03:19:31;;;;;;;19.02;12.40;;;;;;;;;;5137371;27;20114;-75
2023/06/25 03:21:57;;;;;;;17.17;12.63;;;;;;;;;;5137340;27;20047;-75
2023/06/25 03:24:23;;;;;;;17.67;12.48;;;;;;;;;;5150488;27;20047;-75
2023/06/25 03:26:50;;;;;;;20.17;12.32;;;;;;;;;;5127870;27;20461;-75
2023/06/25 03:29:16;;;;;;;17.92;11.88;;;;;;;;;;5122963;27;20260;-75
2023/06/25 03:31:42;;;;;;;15.63;11.75;;;;;;;;;;5153641;27;20111;-75
2023/06/25 03:34:08;;;;;;;20.55;11.88;;;;;;;;;;5136977;27;20046;-75
2023/06/25 03:36:35;;;;;;;16.00;12.07;;;;;;;;;;5136637;27;20035;-75
2023/06/25 03:39:01;;;;;;;15.98;12.05;;;;;;;;;;5136104;27;20137;-75
2023/06/25 03:41:27;;;;;;;17.88;12.43;;;;;;;;;;5136933;27;20051;-74
2023/06/25 03:43:53;;;;;;;18.75;12.80;;;;;;;;;;5134349;27;20049;-75
2023/06/25 03:46:20;;;;;;;18.90;12.05;;;;;;;;;;5154464;27;20042;-74
2023/06/25 03:48:46;;;;;;;17.92;12.05;;;;;;;;;;5136121;27;20183;-75
2023/06/25 03:51:12;;;;;;;16.50;12.57;;;;;;;;;;5122754;27;20063;-75
2023/06/25 03:53:39;;;;;;;17.20;12.25;;;;;;;;;;5115156;27;20046;-75
2023/06/25 03:56:05;;;;;;;15.43;11.90;;;;;;;;;;5131197;27;20401;-75
2023/06/25 03:58:31;;;;;;;16.45;12.18;;;;;;;;;;5125155;27;20165;-75
2023/06/25 04:00:57;;;;;;;18.05;11.85;;;;;;;;;;5142979;27;20035;-75
2023/06/25 04:03:25;;;;;;;14.88;10.95;;;;;;;;;;5130862;27;20398;-75
2023/06/25 04:05:51;;;;;;;17.17;11.88;;;;;;;;;;5134546;27;20042;-75
2023/06/25 04:08:18;;;;;;;14.77;12.55;;;;;;;;;;5135516;27;20060;-75
2023/06/25 04:10:44;;;;;;;15.80;11.63;;;;;;;;;;5136229;27;20047;-75
2023/06/25 04:13:10;;;;;;;18.50;12.00;;;;;;;;;;5132569;27;20051;-75
2023/06/25 04:15:36;;;;;;;16.25;11.55;;;;;;;;;;5154965;27;20121;-75
2023/06/25 04:18:02;;;;;;;14.95;11.77;;;;;;;;;;5136213;27;20046;-75
2023/06/25 04:20:29;;;;;;;15.57;11.25;;;;;;;;;;5152205;27;20039;-75
2023/06/25 04:22:56;;;;;;;19.02;11.35;;;;;;;;;;5132886;27;20062;-75
2023/06/25 04:25:22;;;;;;;18.65;12.25;;;;;;;;;;5142367;27;20047;-74
2023/06/25 04:27:49;;;;;;;21.20;12.48;;;;;;;;;;5131910;27;20190;-75
2023/06/25 04:30:15;;;;;;;20.15;12.05;;;;;;;;;;5153309;27;20043;-75
2023/06/25 04:32:41;;;;;;;22.77;12.50;;;;;;;;;;5152671;27;20042;-75
2023/06/25 04:35:08;;;;;;;19.17;12.85;;;;;;;;;;5134955;27;20097;-75
2023/06/25 04:37:34;;;;;;;17.17;11.50;;;;;;;;;;5154303;27;20087;-75
2023/06/25 04:40:02;;;;;;;16.77;12.35;;;;;;;;;;5115223;27;20065;-75
2023/06/25 04:42:29;;;;;;;15.63;11.32;;;;;;;;;;5125709;27;20058;-75
2023/06/25 04:44:55;;;;;;;22.25;13.40;;;;;;;;;;5147692;27;20367;-75
2023/06/25 04:47:21;;;;;;;15.85;11.68;;;;;;;;;;5154107;27;20121;-75
2023/06/25 04:49:48;;;;;;;18.17;12.43;;;;;;;;;;5134710;27;20478;-75
2023/06/25 04:52:18;;;;;;;19.58;13.13;;;;;;;;;;5121081;27;20054;-74
2023/06/25 04:54:48;;;;;;;16.08;11.95;;;;;;;;;;5154122;27;20046;-75
2023/06/25 04:57:14;;;;;;;16.50;11.13;;;;;;;;;;5149055;27;20107;-74
2023/06/25 04:59:40;;;;;;;15.90;11.43;;;;;;;;;;5142208;27;20055;-75
2023/06/25 05:02:06;;;;;;;15.05;9.93;;;;;;;;;;5141244;27;20035;-74
2023/06/25 05:04:32;;;;;;;16.30;11.02;;;;;;;;;;5142253;27;20050;-75
2023/06/25 05:06:59;;;;;;;17.65;10.70;;;;;;;;;;5138014;27;20505;-75
2023/06/25 05:09:25;;;;;;;14.80;10.90;;;;;;;;;;5134396;27;20043;-75
2023/06/25 05:11:51;;;;;;;14.82;10.55;;;;;;;;;;5137251;27;20050;-75
2023/06/25 05:14:17;;;;;;;13.10;9.27;;;;;;;;;;5118442;27;20046;-74
2023/06/25 05:16:43;;;;;;;19.48;11.63;;;;;;;;;;5113283;27;20047;-74
2023/06/25 05:19:12;;;;;;;14.52;9.90;;;;;;;;;;5134722;27;20042;-74
2023/06/25 05:21:39;;;;;;;14.85;10.38;;;;;;;;;;5116654;27;20054;-74
2023/06/25 05:24:05;;;;;;;13.30;9.65;;;;;;;;;;5140678;27;20039;-74
2023/06/25 05:26:32;;;;;;;14.23;9.80;;;;;;;;;;5114405;27;20071;-74
2023/06/25 05:28:59;;;;;;;12.88;9.27;;;;;;;;;;5137406;27;20204;-75
2023/06/25 05:31:26;;;;;;;13.98;9.73;;;;;;;;;;5113424;28;20122;-75
2023/06/25 05:33:52;;;;;;;13.43;9.88;;;;;;;;;;5124057;27;20391;-75
2023/06/25 05:36:18;;;;;;;14.05;9.57;;;;;;;;;;5100165;27;20039;-75
2023/06/25 05:38:44;;;;;;;13.90;9.38;;;;;;;;;;5135416;27;20435;-74
2023/06/25 05:41:11;;;;;;;14.63;9.27;;;;;;;;;;5123909;27;20109;-77
2023/06/25 05:43:37;;;;;;;13.07;9.30;;;;;;;;;;5114160;28;20066;-75
2023/06/25 05:46:03;;;;;;;13.77;9.27;;;;;;;;;;5132141;27;20042;-78
2023/06/25 05:48:29;;;;;;;12.50;8.48;;;;;;;;;;5126303;27;20039;-77
2023/06/25 05:50:55;;;;;;;15.57;9.25;;;;;;;;;;5145938;27;20042;-77
2023/06/25 05:53:23;;;;;;;15.55;9.35;;;;;;;;;;5113365;28;20047;-75
2023/06/25 05:55:49;;;;;;;13.30;8.95;;;;;;;;;;5133422;27;20490;-72
2023/06/25 05:58:15;;;;;;;13.00;8.82;;;;;;;;;;5131254;27;20759;-75
2023/06/25 06:00:41;;;;;;;12.23;8.38;;;;;;;;;;5133535;27;20038;-78
2023/06/25 06:03:08;;;;;;;18.05;9.25;;;;;;;;;;5134611;27;20175;-78
2023/06/25 06:05:34;;;;;;;13.38;8.07;;;;;;;;;;5156707;27;20082;-79
2023/06/25 06:08:00;;;;;;;13.32;8.10;;;;;;;;;;5152057;27;20115;-76
2023/06/25 06:10:26;;;;;;;11.65;7.55;;;;;;;;;;5153149;27;20517;-77
2023/06/25 06:12:52;;;;;;;13.40;7.95;;;;;;;;;;5133646;27;20146;-76
2023/06/25 06:15:18;;;;;;;12.10;7.90;;;;;;;;;;5117954;27;20038;-77
2023/06/25 06:17:45;;;;;;;10.85;7.45;;;;;;;;;;5152519;27;20053;-77
2023/06/25 06:20:11;;;;;;;11.02;7.75;;;;;;;;;;5129745;27;20057;-78
2023/06/25 06:22:37;;;;;;;9.07;6.93;;;;;;;;;;5152343;27;20101;-79
2023/06/25 06:25:04;;;;;;;9.32;6.72;;;;;;;;;;5133147;27;20126;-78
2023/06/25 06:27:30;;;;;;;12.27;7.75;;;;;;;;;;5125725;27;20062;-77
2023/06/25 06:29:56;;;;;;;9.75;6.82;;;;;;;;;;5129899;27;20485;-78
2023/06/25 06:32:22;;;;;;;11.05;7.20;;;;;;;;;;5131513;27;20043;-78
2023/06/25 06:34:48;;;;;;;14.00;7.40;;;;;;;;;;5130386;27;20269;-73
2023/06/25 06:37:15;;;;;;;17.45;7.43;;;;;;;;;;5127684;27;20046;-78
2023/06/25 06:39:41;;;;;;;16.70;8.07;;;;;;;;;;5131113;27;20398;-77
2023/06/25 06:42:07;;;;;;;11.65;6.93;;;;;;;;;;5126502;27;20039;-78
2023/06/25 06:44:33;;;;;;;12.65;7.57;;;;;;;;;;5131625;27;20058;-78
2023/06/25 06:47:00;;;;;;;10.10;7.97;;;;;;;;;;5099444;28;20482;-78
2023/06/25 06:49:26;;;;;;;14.18;8.32;;;;;;;;;;5116920;27;20051;-78
2023/06/25 06:51:52;;;;;;;15.85;10.30;;;;;;;;;;5129360;27;20440;-78
2023/06/25 06:54:18;;;;;;;12.27;9.27;;;;;;;;;;5125155;27;20050;-79
2023/06/25 06:56:44;;;;;;;12.40;8.35;;;;;;;;;;5115271;27;20370;-82
2023/06/25 06:59:11;;;;;;;13.05;8.95;;;;;;;;;;5120163;27;20062;-76
2023/06/25 07:01:37;;;;;;;13.32;9.30;;;;;;;;;;5115716;27;20127;-74
2023/06/25 07:04:03;;;;;;;10.90;8.38;;;;;;;;;;5097105;27;20098;-78
2023/06/25 07:06:29;;;;;;;12.30;8.85;;;;;;;;;;5124561;27;20130;-79
2023/06/25 07:08:55;;;;;;;14.57;8.80;;;;;;;;;;5114317;27;20048;-78
2023/06/25 07:11:22;;;;;;;12.63;9.73;;;;;;;;;;5096664;28;20039;-73
2023/06/25 07:13:49;;;;;;;13.32;8.82;;;;;;;;;;5119343;27;20068;-74
2023/06/25 07:16:16;;;;;;;17.80;8.68;;;;;;;;;;5112597;28;20082;-73
2023/06/25 07:18:43;;;;;;;13.00;8.85;;;;;;;;;;5113519;28;20130;-73
2023/06/25 07:21:10;;;;;;;15.70;10.32;;;;;;;;;;5099317;27;20540;-73
2023/06/25 07:23:37;;;;;;;11.90;9.25;;;;;;;;;;5097661;28;20046;-73
2023/06/25 07:26:06;;;;;;;14.30;9.60;;;;;;;;;;5113254;28;20112;-73
2023/06/25 07:28:32;;;;;;;16.10;10.07;;;;;;;;;;5096326;28;20055;-73
2023/06/25 07:30:58;;;;;;;12.63;10.20;;;;;;;;;;5113543;28;20083;-73
2023/06/25 07:33:25;;;;;;;11.90;9.30;;;;;;;;;;5113808;27;20083;-73
2023/06/25 07:35:51;;;;;;;17.08;10.23;;;;;;;;;;5112980;28;20043;-73
2023/06/25 07:38:17;;;;;;;12.10;8.63;;;;;;;;;;5115419;27;20044;-74
2023/06/25 07:40:43;;;;;;;13.63;9.60;;;;;;;;;;5122510;27;20075;-74
2023/06/25 07:43:09;;;;;;;11.30;8.70;;;;;;;;;;5115112;27;20105;-73
2023/06/25 07:45:36;;;;;;;12.73;8.98;;;;;;;;;;5115537;27;20038;-72
2023/06/25 07:48:02;;;;;;;11.70;9.40;;;;;;;;;;5113295;28;20059;-76
2023/06/25 07:50:28;;;;;;;12.52;9.65;;;;;;;;;;5113657;27;20116;-75
2023/06/25 07:52:54;;;;;;;15.18;9.60;;;;;;;;;;5120562;27;20499;-75
2023/06/25 07:55:22;;;;;;;14.80;9.88;;;;;;;;;;5134294;27;20054;-75
2023/06/25 07:57:48;;;;;;;11.52;9.82;;;;;;;;;;5132631;27;20051;-75
2023/06/25 08:00:14;;;;;;;12.85;9.27;;;;;;;;;;5128326;27;20210;-76
2023/06/25 08:02:41;;;;;;;10.32;8.75;;;;;;;;;;5122828;27;20491;-76
2023/06/25 08:05:07;;;;;;;14.50;9.35;;;;;;;;;;5102569;27;20043;-75
2023/06/25 08:07:33;;;;;;;12.68;9.02;;;;;;;;;;5129219;27;20039;-75
2023/06/25 08:09:59;;;;;;;12.45;8.77;;;;;;;;;;5121632;27;20336;-75
2023/06/25 08:12:26;;;;;;;13.05;9.18;;;;;;;;;;5140204;27;20123;-75
2023/06/25 08:14:52;;;;;;;12.00;8.18;;;;;;;;;;5132146;27;20058;-75
2023/06/25 08:17:18;;;;;;;11.23;8.77;;;;;;;;;;5118919;27;20043;-75
2023/06/25 08:19:44;;;;;;;10.80;8.77;;;;;;;;;;5118816;27;20443;-74
2023/06/25 08:22:10;;;;;;;13.85;9.70;;;;;;;;;;5126077;27;20538;-75
2023/06/25 08:24:37;;;;;;;11.32;8.20;;;;;;;;;;5116011;27;20122;-75
2023/06/25 08:27:03;;;;;;;13.85;8.93;;;;;;;;;;5129984;27;20478;-74
2023/06/25 08:29:30;;;;;;;10.32;8.30;;;;;;;;;;5132146;27;20480;-75
2023/06/25 08:31:56;;;;;;;12.05;8.27;;;;;;;;;;5144080;27;20034;-75
2023/06/25 08:34:23;;;;;;;16.40;8.52;;;;;;;;;;5127045;27;20420;-75
2023/06/25 08:36:49;;;;;;;10.98;6.97;;;;;;;;;;5114548;27;20039;-75
2023/06/25 08:39:16;;;;;;;9.93;7.20;;;;;;;;;;5147402;27;20110;-75
2023/06/25 08:41:43;;;;;;;8.38;6.53;;;;;;;;;;5165838;27;20049;-75
2023/06/25 08:44:09;;;;;;;9.55;6.75;;;;;;;;;;5118527;27;20396;-75
2023/06/25 08:46:36;;;;;;;9.30;7.57;;;;;;;;;;5138411;27;20047;-75
2023/06/25 08:49:03;;;;;;;8.80;6.60;;;;;;;;;;5154650;27;20536;-75
2023/06/25 08:51:30;;;;;;;10.05;7.75;;;;;;;;;;5106989;27;20078;-75
2023/06/25 08:53:57;;;;;;;9.65;7.30;;;;;;;;;;5125028;27;20050;-76
2023/06/25 08:56:23;;;;;;;9.20;6.53;;;;;;;;;;5142764;27;20074;-76
2023/06/25 08:58:49;;;;;;;8.52;5.70;;;;;;;;;;5135440;27;20049;-76
2023/06/25 09:01:16;;;;;;;11.57;7.57;;;;;;;;;;5152438;27;20073;-76
2023/06/25 09:03:42;;;;;;;8.13;6.47;;;;;;;;;;5147645;27;20103;-76
2023/06/25 09:06:16;;;;;;;7.80;5.90;;;;;;;;;;5153829;27;20435;-76
2023/06/25 09:08:43;;;;;;;10.27;5.85;;;;;;;;;;5135345;27;20086;-72
2023/06/25 09:11:10;;;;;;;10.02;5.93;;;;;;;;;;5129338;27;20078;-77
2023/06/25 09:13:37;;;;;;;8.57;6.10;;;;;;;;;;5121683;27;20043;-80
2023/06/25 09:16:04;;;;;;;7.20;5.35;;;;;;;;;;5130472;27;20462;-80
2023/06/25 09:18:31;;;;;;;8.32;5.03;;;;;;;;;;5122897;27;20398;-80
2023/06/25 09:21:01;;;;;;;8.60;4.55;;;;;;;;;;5127182;27;20034;-80
2023/06/25 09:23:27;;;;;;;9.63;6.20;;;;;;;;;;5138367;27;20497;-80
2023/06/25 09:25:53;;;;;;;7.47;5.00;;;;;;;;;;5102946;27;20047;-81
2023/06/25 09:28:20;;;;;;;9.02;5.40;;;;;;;;;;5145122;27;20110;-80
2023/06/25 09:30:46;;;;;;;7.38;4.78;;;;;;;;;;5113605;28;20150;-80
2023/06/25 09:33:13;;;;;;;9.15;4.20;;;;;;;;;;5132652;27;20039;-81
2023/06/25 09:35:39;;;;;;;8.02;4.03;;;;;;;;;;5120670;27;20039;-81
2023/06/25 09:38:06;;;;;;;8.82;5.45;;;;;;;;;;5137488;27;20035;-80
2023/06/25 09:40:32;;;;;;;6.68;5.30;;;;;;;;;;5139695;27;20182;-80
2023/06/25 09:42:59;;;;;;;7.32;5.15;;;;;;;;;;5132760;27;20039;-81
2023/06/25 09:45:27;;;;;;;7.78;4.78;;;;;;;;;;5113807;27;20088;-80
2023/06/25 09:47:57;;;;;;;8.32;4.78;;;;;;;;;;5097353;28;20464;-81
2023/06/25 09:50:35;;;;;;;7.95;4.65;;;;;;;;;;5121591;27;20051;-81
2023/06/25 09:53:04;;;;;;;8.07;4.75;;;;;;;;;;5127495;27;20485;-81
2023/06/25 09:55:33;;;;;;;6.57;4.55;;;;;;;;;;5136299;27;20050;-81
2023/06/25 09:58:01;;;;;;;8.93;4.50;;;;;;;;;;5156199;27;20533;-81
2023/06/25 10:00:27;;;;;;;8.18;3.95;;;;;;;;;;5155158;27;20046;-81
2023/06/25 10:02:54;;;;;;;7.32;4.40;;;;;;;;;;5147895;27;20047;-81
2023/06/25 10:05:20;;;;;;;7.43;4.45;;;;;;;;;;5133283;27;20038;-81
2023/06/25 10:07:47;;;;;;;6.82;3.97;;;;;;;;;;5138919;27;20422;-81
2023/06/25 10:10:23;;;;;;;6.72;4.30;;;;;;;;;;5157409;27;20086;-80
2023/06/25 10:12:49;;;;;;;6.57;4.07;;;;;;;;;;5156734;27;20091;-81
2023/06/25 10:15:16;;;;;;;6.13;4.15;;;;;;;;;;5138849;27;20127;-80
2023/06/25 10:17:51;;;;;;;6.95;4.25;;;;;;;;;;5149882;27;20470;-81
2023/06/25 10:20:26;;;;;;;7.78;4.07;;;;;;;;;;5139829;27;20045;-81
2023/06/25 10:23:02;;;;;;;5.72;3.70;;;;;;;;;;5157250;27;20069;-81
2023/06/25 10:25:28;;;;;;;6.05;4.10;;;;;;;;;;5138387;27;20050;-81
2023/06/25 10:28:26;;;;;;;7.63;4.05;;;;;;;;;;5120848;27;20409;-81
2023/06/25 10:30:52;;;;;;;5.50;3.40;;;;;;;;;;5134775;27;20052;-81
2023/06/25 10:33:19;;;;;;;4.75;3.35;;;;;;;;;;5148997;27;20155;-81
2023/06/25 10:36:06;;;;;;;5.90;3.85;;;;;;;;;;5140105;27;20043;-80
2023/06/25 10:38:32;;;;;;;5.13;3.33;;;;;;;;;;5152044;27;20050;-79
2023/06/25 10:40:59;;;;;;;6.00;3.40;;;;;;;;;;5137366;27;20126;-79
2023/06/25 10:43:25;;;;;;;6.05;3.13;;;;;;;;;;5138137;27;20054;-79
2023/06/25 10:45:52;;;;;;;6.78;3.72;;;;;;;;;;5127832;27;20042;-79
2023/06/25 10:48:18;;;;;;;7.90;3.20;;;;;;;;;;5131968;27;20065;-79
2023/06/25 10:50:45;;;;;;;5.38;3.50;;;;;;;;;;5143960;27;20150;-79
2023/06/25 10:53:16;;;;;;;5.95;3.70;;;;;;;;;;5147567;27;20391;-79
2023/06/25 10:55:45;;;;;;;5.60;3.35;;;;;;;;;;5158712;27;20394;-79
2023/06/25 10:58:19;;;;;;;8.82;4.00;;;;;;;;;;5129527;27;20133;-80
2023/06/25 11:00:45;;;;;;;5.78;3.40;;;;;;;;;;5135478;27;20073;-72
2023/06/25 11:03:12;;;;;;;5.65;3.22;;;;;;;;;;5134402;27;20054;-73
2023/06/25 11:05:39;;;;;;;4.20;2.88;;;;;;;;;;5155217;27;20493;-73
2023/06/25 11:08:07;;;;;;;6.13;3.72;;;;;;;;;;5151542;27;20348;-73
2023/06/25 11:10:34;;;;;;;6.28;3.50;;;;;;;;;;5156023;27;20530;-73
2023/06/25 11:13:00;;;;;;;5.68;2.83;;;;;;;;;;5156207;27;20090;-73
2023/06/25 11:15:30;;;;;;;4.30;2.88;;;;;;;;;;5115980;27;20172;-73
2023/06/25 11:17:56;;;;;;;5.68;3.35;;;;;;;;;;5152998;27;20035;-73
2023/06/25 11:20:23;;;;;;;4.90;3.42;;;;;;;;;;5156003;27;20043;-73
2023/06/25 11:22:49;;;;;;;7.22;3.38;;;;;;;;;;5148894;27;20039;-73
2023/06/25 11:25:16;;;;;;;5.07;3.25;;;;;;;;;;5155136;27;20038;-73
2023/06/25 11:27:42;;;;;;;5.13;2.88;;;;;;;;;;5154706;27;20518;-73
2023/06/25 11:30:09;;;;;;;4.28;2.85;;;;;;;;;;5154470;27;20039;-73
2023/06/25 11:32:37;;;;;;;4.22;2.97;;;;;;;;;;5147827;27;20035;-73
2023/06/25 11:35:11;;;;;;;5.97;3.28;;;;;;;;;;5135291;27;20051;-73
2023/06/25 11:37:44;;;;;;;8.38;3.80;;;;;;;;;;5154886;27;20035;-73
2023/06/25 11:40:21;;;;;;;5.55;3.75;;;;;;;;;;5155594;27;20501;-73
2023/06/25 11:42:47;;;;;;;5.72;3.60;;;;;;;;;;5151248;27;20126;-73
2023/06/25 11:45:13;;;;;;;5.60;3.45;;;;;;;;;;5148811;27;20126;-73
2023/06/25 11:47:44;;;;;;;4.63;2.90;;;;;;;;;;5146507;27;20698;-73
2023/06/25 11:50:11;;;;;;;6.25;3.13;;;;;;;;;;5128734;27;20406;-73
2023/06/25 11:52:38;;;;;;;5.03;3.22;;;;;;;;;;5141708;27;20047;-73
2023/06/25 11:55:07;;;;;;;4.10;2.88;;;;;;;;;;5155209;27;20049;-73
2023/06/25 11:57:33;;;;;;;4.53;2.60;;;;;;;;;;5154639;27;20045;-73
2023/06/25 12:00:00;;;;;;;4.45;2.72;;;;;;;;;;5155411;27;20105;-73
2023/06/25 12:02:26;;;;;;;5.75;3.17;;;;;;;;;;5152839;27;20453;-73
2023/06/25 12:04:54;;;;;;;4.20;3.17;;;;;;;;;;5145686;27;20121;-73
2023/06/25 12:07:20;;;;;;;5.05;3.22;;;;;;;;;;5136275;27;20442;-73
2023/06/25 12:09:46;;;;;;;6.25;3.72;;;;;;;;;;5155123;27;20053;-73
2023/06/25 12:12:12;;;;;;;6.28;3.03;;;;;;;;;;5135799;27;20403;-73
2023/06/25 12:14:38;;;;;;;4.80;2.85;;;;;;;;;;5154837;27;20058;-73
2023/06/25 12:17:05;;;;;;;4.60;3.35;;;;;;;;;;5135012;27;20081;-73
2023/06/25 12:19:31;;;;;;;5.32;3.10;;;;;;;;;;5131642;27;20042;-73
2023/06/25 12:21:58;;;;;;;5.22;3.42;;;;;;;;;;5136081;27;20043;-71
2023/06/25 12:24:24;;;;;;;5.68;3.30;;;;;;;;;;5117748;27;20047;-73
2023/06/25 12:26:51;;;;;;;4.50;2.97;;;;;;;;;;5153788;27;20113;-73
2023/06/25 12:29:17;;;;;;;5.65;3.30;;;;;;;;;;5135796;27;20401;-73
2023/06/25 12:31:43;;;;;;;6.43;3.60;;;;;;;;;;5151767;27;20065;-73
2023/06/25 12:34:10;;;;;;;5.25;3.17;;;;;;;;;;5119315;27;20051;-73
2023/06/25 12:36:36;;;;;;;5.90;3.78;;;;;;;;;;5133810;27;20046;-73
2023/06/25 12:39:03;;;;;;;4.97;3.33;;;;;;;;;;5135918;27;20059;-73
2023/06/25 12:41:29;;;;;;;4.90;3.17;;;;;;;;;;5153679;27;20054;-73
2023/06/25 12:43:55;;;;;;;4.97;3.05;;;;;;;;;;5154544;27;20046;-73
2023/06/25 12:46:22;;;;;;;6.18;3.38;;;;;;;;;;5151157;27;20053;-73
2023/06/25 12:48:48;;;;;;;8.95;3.25;;;;;;;;;;5153392;27;20145;-73
2023/06/25 12:51:14;;;;;;;5.50;3.35;;;;;;;;;;5144365;27;20038;-73
2023/06/25 12:53:40;;;;;;;6.35;3.92;;;;;;;;;;5129777;27;20042;-73
2023/06/25 12:56:06;;;;;;;6.22;3.45;;;;;;;;;;5115030;27;20578;-73
2023/06/25 12:58:33;;;;;;;6.07;3.95;;;;;;;;;;5114514;27;20451;-73
2023/06/25 13:00:59;;;;;;;4.93;3.10;;;;;;;;;;5148322;27;20038;-73
2023/06/25 13:03:25;;;;;;;5.95;3.55;;;;;;;;;;5131727;27;20513;-73
2023/06/25 13:05:51;;;;;;;7.18;3.95;;;;;;;;;;5135302;27;20031;-73
2023/06/25 13:08:17;;;;;;;7.80;3.30;;;;;;;;;;5146022;27;20382;-73
2023/06/25 13:10:44;;;;;;;5.88;3.30;;;;;;;;;;5149272;27;20038;-74
2023/06/25 13:13:10;;;;;;;5.15;3.63;;;;;;;;;;5127754;27;20110;-73
2023/06/25 13:15:36;;;;;;;4.10;2.67;;;;;;;;;;5122404;27;20039;-74
2023/06/25 13:18:03;;;;;;;4.95;3.20;;;;;;;;;;5133622;27;20035;-74
2023/06/25 13:20:29;;;;;;;5.07;3.05;;;;;;;;;;5133496;27;20050;-73
2023/06/25 13:22:55;;;;;;;4.20;2.88;;;;;;;;;;5132959;27;20114;-73
2023/06/25 13:25:22;;;;;;;4.07;2.80;;;;;;;;;;5114490;27;20051;-73
2023/06/25 13:27:48;;;;;;;4.95;3.40;;;;;;;;;;5144646;27;20398;-74
2023/06/25 13:30:14;;;;;;;4.55;3.10;;;;;;;;;;5116718;27;20481;-73
2023/06/25 13:32:40;;;;;;;5.13;3.33;;;;;;;;;;5135133;27;20053;-74
2023/06/25 13:35:06;;;;;;;5.22;2.90;;;;;;;;;;5153867;27;20039;-73
2023/06/25 13:37:33;;;;;;;6.55;3.53;;;;;;;;;;5143767;27;20093;-73
2023/06/25 13:39:59;;;;;;;7.80;3.70;;;;;;;;;;5124868;27;20046;-73
2023/06/25 13:42:25;;;;;;;5.38;3.55;;;;;;;;;;5152767;27;20046;-73
2023/06/25 13:44:51;;;;;;;5.65;3.90;;;;;;;;;;5134931;27;20054;-73
2023/06/25 13:47:17;;;;;;;4.43;2.97;;;;;;;;;;5153454;27;20118;-74
2023/06/25 13:49:44;;;;;;;5.57;3.45;;;;;;;;;;5132472;27;20058;-73
2023/06/25 13:52:10;;;;;;;4.93;3.47;;;;;;;;;;5122260;27;20091;-74
2023/06/25 13:54:36;;;;;;;5.93;3.80;;;;;;;;;;5134672;27;20051;-73
2023/06/25 13:57:02;;;;;;;5.57;3.88;;;;;;;;;;5118509;27;20047;-74
2023/06/25 13:59:28;;;;;;;6.28;4.05;;;;;;;;;;5115610;27;20068;-73
2023/06/25 14:01:55;;;;;;;6.25;3.47;;;;;;;;;;5118496;27;20034;-73
2023/06/25 14:04:21;;;;;;;6.80;3.55;;;;;;;;;;5097113;28;20501;-74
2023/06/25 14:06:47;;;;;;;5.90;3.88;;;;;;;;;;5097471;28;20110;-74
2023/06/25 14:09:13;;;;;;;4.72;3.50;;;;;;;;;;5132322;27;20075;-74
2023/06/25 14:11:39;;;;;;;5.35;3.67;;;;;;;;;;5113200;27;20046;-74
2023/06/25 14:14:06;;;;;;;5.97;3.65;;;;;;;;;;5135391;27;20451;-72
2023/06/25 14:16:32;;;;;;;5.28;3.72;;;;;;;;;;5099491;27;20108;-72
2023/06/25 14:19:01;;;;;;;6.40;4.05;;;;;;;;;;5131483;27;20039;-72
2023/06/25 14:21:27;;;;;;;6.63;3.85;;;;;;;;;;5121645;27;20043;-72
2023/06/25 14:23:54;;;;;;;5.45;4.03;;;;;;;;;;5113683;28;20538;-72
2023/06/25 14:26:21;;;;;;;5.03;3.85;;;;;;;;;;5116917;27;20482;-72
2023/06/25 14:28:47;;;;;;;6.85;3.88;;;;;;;;;;5118031;27;20047;-72
2023/06/25 14:31:13;;;;;;;4.90;3.60;;;;;;;;;;5113457;28;20053;-72